sensor_id;sensor_type;location;lat;lon;timestamp;temperature;humidity
38784;DHT22;24531;45.502;12.238;2022-09-09T00:03:47;25.70;91.70
38784;DHT22;24531;45.502;12.238;2022-09-09T00:11:42;25.60;91.80
38784;DHT22;24531;45.502;12.238;2022-09-09T00:14:13;25.60;91.80
38784;DHT22;24531;45.502;12.238;2022-09-09T00:16:40;25.60;91.80
38784;DHT22;24531;45.502;12.238;2022-09-09T00:19:30;25.50;91.90
38784;DHT22;24531;45.502;12.238;2022-09-09T00:24:43;25.40;91.90
38784;DHT22;24531;45.502;12.238;2022-09-09T00:29:55;25.40;92.00
38784;DHT22;24531;45.502;12.238;2022-09-09T00:32:22;25.30;92.00
38784;DHT22;24531;45.502;12.238;2022-09-09T00:34:51;25.30;92.10
38784;DHT22;24531;45.502;12.238;2022-09-09T00:37:18;25.30;92.10
38784;DHT22;24531;45.502;12.238;2022-09-09T00:39:47;25.30;92.10
38784;DHT22;24531;45.502;12.238;2022-09-09T00:42:26;25.30;92.10
38784;DHT22;24531;45.502;12.238;2022-09-09T00:44:57;25.30;92.10
38784;DHT22;24531;45.502;12.238;2022-09-09T00:47:40;25.30;92.10
38784;DHT22;24531;45.502;12.238;2022-09-09T00:52:46;25.20;92.10
38784;DHT22;24531;45.502;12.238;2022-09-09T00:55:22;25.20;92.20
38784;DHT22;24531;45.502;12.238;2022-09-09T00:57:51;25.20;92.20
38784;DHT22;24531;45.502;12.238;2022-09-09T01:02:53;25.20;92.20
38784;DHT22;24531;45.502;12.238;2022-09-09T01:07:49;25.10;92.30
38784;DHT22;24531;45.502;12.238;2022-09-09T01:10:21;25.10;92.30
38784;DHT22;24531;45.502;12.238;2022-09-09T01:12:50;25.00;92.30
38784;DHT22;24531;45.502;12.238;2022-09-09T01:15:19;24.90;92.30
38784;DHT22;24531;45.502;12.238;2022-09-09T01:17:55;24.90;92.40
38784;DHT22;24531;45.502;12.238;2022-09-09T01:28:14;24.80;92.50
38784;DHT22;24531;45.502;12.238;2022-09-09T01:30:41;24.80;92.50
38784;DHT22;24531;45.502;12.238;2022-09-09T01:33:10;24.80;92.50
38784;DHT22;24531;45.502;12.238;2022-09-09T01:35:52;24.80;92.50
38784;DHT22;24531;45.502;12.238;2022-09-09T01:38:22;24.80;92.50
38784;DHT22;24531;45.502;12.238;2022-09-09T01:40:49;24.80;92.50
38784;DHT22;24531;45.502;12.238;2022-09-09T01:43:18;24.80;92.50
38784;DHT22;24531;45.502;12.238;2022-09-09T01:45:43;24.80;92.50
38784;DHT22;24531;45.502;12.238;2022-09-09T01:48:09;24.80;92.50
38784;DHT22;24531;45.502;12.238;2022-09-09T01:50:35;24.80;92.40
38784;DHT22;24531;45.502;12.238;2022-09-09T01:53:00;24.80;92.50
38784;DHT22;24531;45.502;12.238;2022-09-09T01:55:37;24.80;92.50
38784;DHT22;24531;45.502;12.238;2022-09-09T02:00:46;24.80;92.40
38784;DHT22;24531;45.502;12.238;2022-09-09T02:10:46;24.70;92.50
38784;DHT22;24531;45.502;12.238;2022-09-09T02:13:14;24.70;92.50
38784;DHT22;24531;45.502;12.238;2022-09-09T02:15:55;24.60;92.50
38784;DHT22;24531;45.502;12.238;2022-09-09T02:18:25;24.60;92.50
38784;DHT22;24531;45.502;12.238;2022-09-09T02:20:52;24.60;92.60
38784;DHT22;24531;45.502;12.238;2022-09-09T02:23:18;24.60;92.60
38784;DHT22;24531;45.502;12.238;2022-09-09T02:25:44;24.60;92.60
38784;DHT22;24531;45.502;12.238;2022-09-09T02:28:11;24.50;92.60
38784;DHT22;24531;45.502;12.238;2022-09-09T02:30:39;24.50;92.70
38784;DHT22;24531;45.502;12.238;2022-09-09T02:33:06;24.60;92.70
38784;DHT22;24531;45.502;12.238;2022-09-09T02:35:32;24.60;92.70
38784;DHT22;24531;45.502;12.238;2022-09-09T02:38:03;24.50;92.60
38784;DHT22;24531;45.502;12.238;2022-09-09T02:40:29;24.50;92.70
38784;DHT22;24531;45.502;12.238;2022-09-09T02:42:55;24.50;92.70
38784;DHT22;24531;45.502;12.238;2022-09-09T02:45:23;24.50;92.70
38784;DHT22;24531;45.502;12.238;2022-09-09T02:50:35;24.50;92.70
38784;DHT22;24531;45.502;12.238;2022-09-09T02:53:05;24.50;92.70
38784;DHT22;24531;45.502;12.238;2022-09-09T02:55:39;24.50;92.70
38784;DHT22;24531;45.502;12.238;2022-09-09T02:58:11;24.50;92.70
38784;DHT22;24531;45.502;12.238;2022-09-09T03:00:38;24.50;92.70
38784;DHT22;24531;45.502;12.238;2022-09-09T03:03:05;24.50;92.70
38784;DHT22;24531;45.502;12.238;2022-09-09T03:05:30;24.50;92.70
38784;DHT22;24531;45.502;12.238;2022-09-09T03:07:57;24.50;92.70
38784;DHT22;24531;45.502;12.238;2022-09-09T03:10:22;24.40;92.70
38784;DHT22;24531;45.502;12.238;2022-09-09T03:12:48;24.50;92.70
38784;DHT22;24531;45.502;12.238;2022-09-09T03:15:13;24.50;92.80
38784;DHT22;24531;45.502;12.238;2022-09-09T03:17:40;24.50;92.70
38784;DHT22;24531;45.502;12.238;2022-09-09T03:20:06;24.40;92.70
38784;DHT22;24531;45.502;12.238;2022-09-09T03:22:32;24.40;92.70
38784;DHT22;24531;45.502;12.238;2022-09-09T03:24:58;24.40;92.80
38784;DHT22;24531;45.502;12.238;2022-09-09T03:27:23;24.40;92.80
38784;DHT22;24531;45.502;12.238;2022-09-09T03:29:49;24.40;92.80
38784;DHT22;24531;45.502;12.238;2022-09-09T03:32:16;24.40;92.80
38784;DHT22;24531;45.502;12.238;2022-09-09T03:34:42;24.30;92.80
38784;DHT22;24531;45.502;12.238;2022-09-09T03:37:08;24.30;92.80
38784;DHT22;24531;45.502;12.238;2022-09-09T03:39:33;24.30;92.80
38784;DHT22;24531;45.502;12.238;2022-09-09T03:41:59;24.30;92.80
38784;DHT22;24531;45.502;12.238;2022-09-09T03:44:24;24.30;92.80
38784;DHT22;24531;45.502;12.238;2022-09-09T03:46:50;24.40;92.90
38784;DHT22;24531;45.502;12.238;2022-09-09T03:49:15;24.30;92.90
38784;DHT22;24531;45.502;12.238;2022-09-09T03:51:42;24.30;92.90
38784;DHT22;24531;45.502;12.238;2022-09-09T03:54:07;24.30;92.90
38784;DHT22;24531;45.502;12.238;2022-09-09T03:56:35;24.30;93.00
38784;DHT22;24531;45.502;12.238;2022-09-09T03:59:01;24.30;93.00
38784;DHT22;24531;45.502;12.238;2022-09-09T04:01:27;24.30;93.00
38784;DHT22;24531;45.502;12.238;2022-09-09T04:03:53;24.30;93.00
38784;DHT22;24531;45.502;12.238;2022-09-09T04:06:18;24.30;93.10
38784;DHT22;24531;45.502;12.238;2022-09-09T04:08:46;24.30;93.10
38784;DHT22;24531;45.502;12.238;2022-09-09T04:11:14;24.30;93.20
38784;DHT22;24531;45.502;12.238;2022-09-09T04:13:40;24.20;93.10
38784;DHT22;24531;45.502;12.238;2022-09-09T04:16:07;24.20;93.20
38784;DHT22;24531;45.502;12.238;2022-09-09T04:18:34;24.30;93.20
38784;DHT22;24531;45.502;12.238;2022-09-09T04:20:59;24.20;93.20
38784;DHT22;24531;45.502;12.238;2022-09-09T04:23:26;24.20;93.20
38784;DHT22;24531;45.502;12.238;2022-09-09T04:25:54;24.20;93.20
38784;DHT22;24531;45.502;12.238;2022-09-09T04:28:20;24.30;93.20
38784;DHT22;24531;45.502;12.238;2022-09-09T04:30:47;24.30;93.20
38784;DHT22;24531;45.502;12.238;2022-09-09T04:33:13;24.30;93.30
38784;DHT22;24531;45.502;12.238;2022-09-09T04:35:38;24.30;93.30
38784;DHT22;24531;45.502;12.238;2022-09-09T04:38:05;24.30;93.30
38784;DHT22;24531;45.502;12.238;2022-09-09T04:40:33;24.30;93.30
38784;DHT22;24531;45.502;12.238;2022-09-09T04:42:59;24.30;93.30
38784;DHT22;24531;45.502;12.238;2022-09-09T04:45:24;24.30;93.30
38784;DHT22;24531;45.502;12.238;2022-09-09T04:47:51;24.20;93.30
38784;DHT22;24531;45.502;12.238;2022-09-09T04:50:16;24.30;93.40
38784;DHT22;24531;45.502;12.238;2022-09-09T04:52:42;24.30;93.40
38784;DHT22;24531;45.502;12.238;2022-09-09T04:55:08;24.20;93.40
38784;DHT22;24531;45.502;12.238;2022-09-09T04:57:34;24.30;93.40
38784;DHT22;24531;45.502;12.238;2022-09-09T05:00:00;24.20;93.40
38784;DHT22;24531;45.502;12.238;2022-09-09T05:02:27;24.20;93.40
38784;DHT22;24531;45.502;12.238;2022-09-09T05:04:52;24.30;93.40
38784;DHT22;24531;45.502;12.238;2022-09-09T05:07:18;24.30;93.40
38784;DHT22;24531;45.502;12.238;2022-09-09T05:09:44;24.30;93.40
38784;DHT22;24531;45.502;12.238;2022-09-09T05:12:10;24.30;93.50
38784;DHT22;24531;45.502;12.238;2022-09-09T05:14:36;24.20;93.50
38784;DHT22;24531;45.502;12.238;2022-09-09T05:17:03;24.20;93.50
38784;DHT22;24531;45.502;12.238;2022-09-09T05:19:28;24.20;93.60
38784;DHT22;24531;45.502;12.238;2022-09-09T05:21:55;24.20;93.50
38784;DHT22;24531;45.502;12.238;2022-09-09T05:24:21;24.20;93.60
38784;DHT22;24531;45.502;12.238;2022-09-09T05:26:48;24.20;93.50
38784;DHT22;24531;45.502;12.238;2022-09-09T05:29:13;24.20;93.50
38784;DHT22;24531;45.502;12.238;2022-09-09T05:31:39;24.20;93.60
38784;DHT22;24531;45.502;12.238;2022-09-09T05:34:04;24.30;93.50
38784;DHT22;24531;45.502;12.238;2022-09-09T05:36:30;24.40;93.50
38784;DHT22;24531;45.502;12.238;2022-09-09T05:38:55;24.40;93.50
38784;DHT22;24531;45.502;12.238;2022-09-09T05:41:21;24.40;93.50
38784;DHT22;24531;45.502;12.238;2022-09-09T05:43:48;24.40;93.50
38784;DHT22;24531;45.502;12.238;2022-09-09T05:46:15;24.50;93.50
38784;DHT22;24531;45.502;12.238;2022-09-09T05:48:42;24.50;93.60
38784;DHT22;24531;45.502;12.238;2022-09-09T05:51:08;24.60;93.50
38784;DHT22;24531;45.502;12.238;2022-09-09T05:53:35;24.70;93.50
38784;DHT22;24531;45.502;12.238;2022-09-09T05:56:04;24.70;93.60
38784;DHT22;24531;45.502;12.238;2022-09-09T05:58:30;24.80;93.50
38784;DHT22;24531;45.502;12.238;2022-09-09T06:01:06;24.80;93.40
38784;DHT22;24531;45.502;12.238;2022-09-09T06:03:33;24.80;93.50
38784;DHT22;24531;45.502;12.238;2022-09-09T06:06:03;24.80;93.40
38784;DHT22;24531;45.502;12.238;2022-09-09T06:08:35;24.90;93.40
38784;DHT22;24531;45.502;12.238;2022-09-09T06:11:06;25.00;93.40
38784;DHT22;24531;45.502;12.238;2022-09-09T06:13:32;25.00;93.50
38784;DHT22;24531;45.502;12.238;2022-09-09T06:15:57;25.20;93.50
38784;DHT22;24531;45.502;12.238;2022-09-09T06:18:24;25.20;93.40
38784;DHT22;24531;45.502;12.238;2022-09-09T06:20:57;25.20;93.40
38784;DHT22;24531;45.502;12.238;2022-09-09T06:23:23;25.20;93.40
38784;DHT22;24531;45.502;12.238;2022-09-09T06:25:48;25.40;93.50
38784;DHT22;24531;45.502;12.238;2022-09-09T06:28:14;25.50;93.50
38784;DHT22;24531;45.502;12.238;2022-09-09T06:30:40;25.60;93.40
38784;DHT22;24531;45.502;12.238;2022-09-09T06:33:06;25.70;93.30
38784;DHT22;24531;45.502;12.238;2022-09-09T06:35:31;25.80;93.30
38784;DHT22;24531;45.502;12.238;2022-09-09T06:37:57;25.90;93.20
38784;DHT22;24531;45.502;12.238;2022-09-09T06:40:24;25.90;93.10
38784;DHT22;24531;45.502;12.238;2022-09-09T06:42:49;26.00;93.20
38784;DHT22;24531;45.502;12.238;2022-09-09T06:45:15;26.10;93.10
38784;DHT22;24531;45.502;12.238;2022-09-09T06:47:40;26.10;93.10
38784;DHT22;24531;45.502;12.238;2022-09-09T06:50:07;26.10;93.10
38784;DHT22;24531;45.502;12.238;2022-09-09T06:52:33;26.10;93.10
38784;DHT22;24531;45.502;12.238;2022-09-09T06:54:58;26.20;93.20
38784;DHT22;24531;45.502;12.238;2022-09-09T06:57:24;26.20;93.20
38784;DHT22;24531;45.502;12.238;2022-09-09T06:59:49;26.30;93.10
38784;DHT22;24531;45.502;12.238;2022-09-09T07:02:15;26.20;93.10
38784;DHT22;24531;45.502;12.238;2022-09-09T07:04:41;26.30;93.20
38784;DHT22;24531;45.502;12.238;2022-09-09T07:07:07;26.40;93.30
38784;DHT22;24531;45.502;12.238;2022-09-09T07:09:35;26.70;93.20
38784;DHT22;24531;45.502;12.238;2022-09-09T07:12:00;26.80;93.10
38784;DHT22;24531;45.502;12.238;2022-09-09T07:14:26;26.90;93.10
38784;DHT22;24531;45.502;12.238;2022-09-09T07:16:52;27.00;92.90
38784;DHT22;24531;45.502;12.238;2022-09-09T07:19:17;27.10;92.80
38784;DHT22;24531;45.502;12.238;2022-09-09T07:21:43;27.10;92.90
38784;DHT22;24531;45.502;12.238;2022-09-09T07:24:09;27.10;92.90
38784;DHT22;24531;45.502;12.238;2022-09-09T07:26:36;27.10;92.70
38784;DHT22;24531;45.502;12.238;2022-09-09T07:29:02;27.00;92.80
38784;DHT22;24531;45.502;12.238;2022-09-09T07:31:30;27.00;92.80
38784;DHT22;24531;45.502;12.238;2022-09-09T07:33:56;26.90;92.90
38784;DHT22;24531;45.502;12.238;2022-09-09T07:38:48;26.70;92.90
38784;DHT22;24531;45.502;12.238;2022-09-09T07:41:35;26.60;92.90
38784;DHT22;24531;45.502;12.238;2022-09-09T07:44:03;26.50;93.00
38784;DHT22;24531;45.502;12.238;2022-09-09T07:46:29;26.50;93.10
38784;DHT22;24531;45.502;12.238;2022-09-09T07:48:55;26.50;93.10
38784;DHT22;24531;45.502;12.238;2022-09-09T07:51:22;26.40;93.50
38784;DHT22;24531;45.502;12.238;2022-09-09T07:53:50;26.50;93.20
38784;DHT22;24531;45.502;12.238;2022-09-09T07:56:17;26.60;93.30
38784;DHT22;24531;45.502;12.238;2022-09-09T07:58:44;27.00;93.30
38784;DHT22;24531;45.502;12.238;2022-09-09T08:01:14;27.60;93.50
38784;DHT22;24531;45.502;12.238;2022-09-09T08:03:41;28.70;93.30
38784;DHT22;24531;45.502;12.238;2022-09-09T08:06:07;30.00;92.70
38784;DHT22;24531;45.502;12.238;2022-09-09T08:08:36;30.90;91.90
38784;DHT22;24531;45.502;12.238;2022-09-09T08:11:07;31.70;91.40
38784;DHT22;24531;45.502;12.238;2022-09-09T08:13:35;32.30;91.00
38784;DHT22;24531;45.502;12.238;2022-09-09T08:16:08;33.00;90.30
38784;DHT22;24531;45.502;12.238;2022-09-09T08:18:34;33.30;90.00
38784;DHT22;24531;45.502;12.238;2022-09-09T08:21:09;33.80;89.50
38784;DHT22;24531;45.502;12.238;2022-09-09T08:23:37;34.20;88.00
38784;DHT22;24531;45.502;12.238;2022-09-09T08:26:04;34.30;86.50
38784;DHT22;24531;45.502;12.238;2022-09-09T08:28:30;34.50;86.40
38784;DHT22;24531;45.502;12.238;2022-09-09T08:30:56;34.80;85.90
38784;DHT22;24531;45.502;12.238;2022-09-09T08:33:29;35.10;85.60
38784;DHT22;24531;45.502;12.238;2022-09-09T08:35:54;35.30;85.00
38784;DHT22;24531;45.502;12.238;2022-09-09T08:38:20;35.80;84.90
38784;DHT22;24531;45.502;12.238;2022-09-09T08:40:46;36.30;83.70
38784;DHT22;24531;45.502;12.238;2022-09-09T08:43:14;36.60;83.00
38784;DHT22;24531;45.502;12.238;2022-09-09T08:45:56;36.90;82.00
38784;DHT22;24531;45.502;12.238;2022-09-09T08:48:38;37.20;81.40
38784;DHT22;24531;45.502;12.238;2022-09-09T08:51:06;37.60;79.90
38784;DHT22;24531;45.502;12.238;2022-09-09T08:53:37;37.80;79.70
38784;DHT22;24531;45.502;12.238;2022-09-09T08:56:08;38.10;79.10
38784;DHT22;24531;45.502;12.238;2022-09-09T08:58:35;38.20;79.30
38784;DHT22;24531;45.502;12.238;2022-09-09T09:09:01;39.40;76.50
38784;DHT22;24531;45.502;12.238;2022-09-09T09:11:33;39.40;75.90
38784;DHT22;24531;45.502;12.238;2022-09-09T09:14:01;39.60;75.30
38784;DHT22;24531;45.502;12.238;2022-09-09T09:16:36;39.90;75.00
38784;DHT22;24531;45.502;12.238;2022-09-09T09:19:03;39.90;74.80
38784;DHT22;24531;45.502;12.238;2022-09-09T09:21:43;38.80;73.00
38784;DHT22;24531;45.502;12.238;2022-09-09T09:24:17;37.80;74.20
38784;DHT22;24531;45.502;12.238;2022-09-09T09:26:44;38.10;75.60
38784;DHT22;24531;45.502;12.238;2022-09-09T09:29:10;38.70;74.30
38784;DHT22;24531;45.502;12.238;2022-09-09T09:31:37;39.30;73.50
38784;DHT22;24531;45.502;12.238;2022-09-09T09:34:03;39.60;72.30
38784;DHT22;24531;45.502;12.238;2022-09-09T09:36:39;38.80;70.40
38784;DHT22;24531;45.502;12.238;2022-09-09T09:39:06;38.00;71.20
38784;DHT22;24531;45.502;12.238;2022-09-09T09:41:34;38.10;71.40
38784;DHT22;24531;45.502;12.238;2022-09-09T09:44:00;37.50;70.40
38784;DHT22;24531;45.502;12.238;2022-09-09T09:46:27;36.30;71.00
38784;DHT22;24531;45.502;12.238;2022-09-09T09:48:56;36.20;72.10
38784;DHT22;24531;45.502;12.238;2022-09-09T09:51:22;36.60;72.80
38784;DHT22;24531;45.502;12.238;2022-09-09T09:53:48;37.40;72.50
38784;DHT22;24531;45.502;12.238;2022-09-09T09:56:14;38.20;71.30
38784;DHT22;24531;45.502;12.238;2022-09-09T10:01:22;38.20;70.10
38784;DHT22;24531;45.502;12.238;2022-09-09T10:03:53;38.80;69.90
38784;DHT22;24531;45.502;12.238;2022-09-09T10:06:29;39.50;68.50
38784;DHT22;24531;45.502;12.238;2022-09-09T10:08:54;39.60;67.10
38784;DHT22;24531;45.502;12.238;2022-09-09T10:19:00;36.00;68.40
38784;DHT22;24531;45.502;12.238;2022-09-09T10:24:02;34.40;70.00
38784;DHT22;24531;45.502;12.238;2022-09-09T10:29:10;33.40;70.90
38784;DHT22;24531;45.502;12.238;2022-09-09T10:34:26;32.60;71.70
38784;DHT22;24531;45.502;12.238;2022-09-09T10:36:57;32.40;72.20
38784;DHT22;24531;45.502;12.238;2022-09-09T10:41:55;32.50;72.90
38784;DHT22;24531;45.502;12.238;2022-09-09T10:44:41;32.50;72.80
38784;DHT22;24531;45.502;12.238;2022-09-09T10:59:48;31.60;73.40
38784;DHT22;24531;45.502;12.238;2022-09-09T11:04:53;31.10;74.00
38784;DHT22;24531;45.502;12.238;2022-09-09T11:07:40;30.90;74.30
38784;DHT22;24531;45.502;12.238;2022-09-09T11:10:16;30.70;74.40
38784;DHT22;24531;45.502;12.238;2022-09-09T11:12:42;30.50;74.70
38784;DHT22;24531;45.502;12.238;2022-09-09T11:15:18;30.50;75.00
38784;DHT22;24531;45.502;12.238;2022-09-09T11:17:50;30.40;75.20
38784;DHT22;24531;45.502;12.238;2022-09-09T11:20:16;30.40;75.40
38784;DHT22;24531;45.502;12.238;2022-09-09T11:25:17;30.40;75.50
38784;DHT22;24531;45.502;12.238;2022-09-09T11:35:37;30.00;75.80
38784;DHT22;24531;45.502;12.238;2022-09-09T11:40:31;30.10;75.80
38784;DHT22;24531;45.502;12.238;2022-09-09T11:43:04;30.10;76.00
38784;DHT22;24531;45.502;12.238;2022-09-09T11:45:31;30.10;75.90
38784;DHT22;24531;45.502;12.238;2022-09-09T11:47:59;30.00;76.00
38784;DHT22;24531;45.502;12.238;2022-09-09T11:52:51;30.10;76.50
38784;DHT22;24531;45.502;12.238;2022-09-09T11:55:28;30.10;76.50
38784;DHT22;24531;45.502;12.238;2022-09-09T12:02:55;30.10;76.70
38784;DHT22;24531;45.502;12.238;2022-09-09T12:05:21;30.10;76.90
38784;DHT22;24531;45.502;12.238;2022-09-09T12:07:51;29.90;76.60
38784;DHT22;24531;45.502;12.238;2022-09-09T12:10:28;29.80;76.70
38784;DHT22;24531;45.502;12.238;2022-09-09T12:12:54;29.60;76.70
38784;DHT22;24531;45.502;12.238;2022-09-09T12:15:25;29.50;76.90
38784;DHT22;24531;45.502;12.238;2022-09-09T12:17:53;29.40;77.20
38784;DHT22;24531;45.502;12.238;2022-09-09T12:28:02;29.60;77.50
38784;DHT22;24531;45.502;12.238;2022-09-09T12:30:35;29.60;77.50
38784;DHT22;24531;45.502;12.238;2022-09-09T12:33:10;29.60;77.80
38784;DHT22;24531;45.502;12.238;2022-09-09T12:35:35;29.50;77.70
38784;DHT22;24531;45.502;12.238;2022-09-09T12:38:03;29.50;77.90
38784;DHT22;24531;45.502;12.238;2022-09-09T12:40:33;29.50;78.00
38784;DHT22;24531;45.502;12.238;2022-09-09T12:43:22;29.40;78.00
38784;DHT22;24531;45.502;12.238;2022-09-09T12:45:46;29.40;78.00
38784;DHT22;24531;45.502;12.238;2022-09-09T12:48:15;29.40;78.20
38784;DHT22;24531;45.502;12.238;2022-09-09T12:53:27;29.30;78.20
38784;DHT22;24531;45.502;12.238;2022-09-09T12:56:04;29.20;78.40
38784;DHT22;24531;45.502;12.238;2022-09-09T12:58:32;29.20;78.50
38784;DHT22;24531;45.502;12.238;2022-09-09T13:00:58;29.20;78.80
38784;DHT22;24531;45.502;12.238;2022-09-09T13:03:25;29.20;78.80
38784;DHT22;24531;45.502;12.238;2022-09-09T13:05:51;29.20;78.90
38784;DHT22;24531;45.502;12.238;2022-09-09T13:08:17;29.30;79.10
38784;DHT22;24531;45.502;12.238;2022-09-09T13:11:01;29.30;79.10
38784;DHT22;24531;45.502;12.238;2022-09-09T13:16:01;29.50;79.20
38784;DHT22;24531;45.502;12.238;2022-09-09T13:18:28;29.60;79.10
38784;DHT22;24531;45.502;12.238;2022-09-09T13:20:54;29.60;79.10
38784;DHT22;24531;45.502;12.238;2022-09-09T13:23:30;29.60;79.10
38784;DHT22;24531;45.502;12.238;2022-09-09T13:26:00;29.60;79.00
38784;DHT22;24531;45.502;12.238;2022-09-09T13:28:26;29.50;79.10
38784;DHT22;24531;45.502;12.238;2022-09-09T13:30:59;29.50;79.30
38784;DHT22;24531;45.502;12.238;2022-09-09T13:33:37;29.60;79.30
38784;DHT22;24531;45.502;12.238;2022-09-09T13:36:04;29.60;79.30
38784;DHT22;24531;45.502;12.238;2022-09-09T13:39:16;29.60;79.30
38784;DHT22;24531;45.502;12.238;2022-09-09T13:41:19;29.60;80.20
38784;DHT22;24531;45.502;12.238;2022-09-09T13:43:47;29.60;79.40
38784;DHT22;24531;45.502;12.238;2022-09-09T13:48:57;29.50;79.50
38784;DHT22;24531;45.502;12.238;2022-09-09T13:51:33;29.50;79.50
38784;DHT22;24531;45.502;12.238;2022-09-09T13:54:00;29.50;79.50
38784;DHT22;24531;45.502;12.238;2022-09-09T13:56:26;29.40;79.40
38784;DHT22;24531;45.502;12.238;2022-09-09T13:58:51;29.30;79.50
38784;DHT22;24531;45.502;12.238;2022-09-09T14:01:17;29.30;79.70
38784;DHT22;24531;45.502;12.238;2022-09-09T14:03:42;29.20;79.60
38784;DHT22;24531;45.502;12.238;2022-09-09T14:06:09;29.00;79.70
38784;DHT22;24531;45.502;12.238;2022-09-09T14:08:35;28.80;80.10
38784;DHT22;24531;45.502;12.238;2022-09-09T14:11:03;28.60;80.40
38784;DHT22;24531;45.502;12.238;2022-09-09T14:13:28;28.60;80.80
38784;DHT22;24531;45.502;12.238;2022-09-09T14:15:53;28.40;81.10
38784;DHT22;24531;45.502;12.238;2022-09-09T14:18:19;28.30;81.50
38784;DHT22;24531;45.502;12.238;2022-09-09T14:20:44;28.30;81.60
38784;DHT22;24531;45.502;12.238;2022-09-09T14:23:11;28.30;81.70
38784;DHT22;24531;45.502;12.238;2022-09-09T14:25:39;28.40;81.90
38784;DHT22;24531;45.502;12.238;2022-09-09T14:28:05;28.40;81.90
38784;DHT22;24531;45.502;12.238;2022-09-09T14:30:30;28.50;82.00
38784;DHT22;24531;45.502;12.238;2022-09-09T14:32:56;28.70;82.20
38784;DHT22;24531;45.502;12.238;2022-09-09T14:35:21;29.00;82.20
38784;DHT22;24531;45.502;12.238;2022-09-09T14:37:47;29.20;81.80
38784;DHT22;24531;45.502;12.238;2022-09-09T14:40:13;29.20;81.70
38784;DHT22;24531;45.502;12.238;2022-09-09T14:42:40;29.30;81.70
38784;DHT22;24531;45.502;12.238;2022-09-09T14:45:06;29.40;81.70
38784;DHT22;24531;45.502;12.238;2022-09-09T14:47:32;29.40;81.40
38784;DHT22;24531;45.502;12.238;2022-09-09T14:49:57;29.40;81.20
38784;DHT22;24531;45.502;12.238;2022-09-09T14:52:23;29.50;81.40
38784;DHT22;24531;45.502;12.238;2022-09-09T14:54:48;29.50;81.30
38784;DHT22;24531;45.502;12.238;2022-09-09T14:57:14;29.60;81.70
38784;DHT22;24531;45.502;12.238;2022-09-09T14:59:40;29.80;81.00
38784;DHT22;24531;45.502;12.238;2022-09-09T15:02:07;29.90;80.60
38784;DHT22;24531;45.502;12.238;2022-09-09T15:04:33;30.00;80.60
38784;DHT22;24531;45.502;12.238;2022-09-09T15:06:59;30.10;80.40
38784;DHT22;24531;45.502;12.238;2022-09-09T15:09:24;30.10;80.40
38784;DHT22;24531;45.502;12.238;2022-09-09T15:11:50;30.20;80.20
38784;DHT22;24531;45.502;12.238;2022-09-09T15:14:15;30.20;80.20
38784;DHT22;24531;45.502;12.238;2022-09-09T15:16:41;30.30;80.20
38784;DHT22;24531;45.502;12.238;2022-09-09T15:19:07;30.40;80.10
38784;DHT22;24531;45.502;12.238;2022-09-09T15:21:33;30.40;80.00
38784;DHT22;24531;45.502;12.238;2022-09-09T15:23:59;30.40;79.60
38784;DHT22;24531;45.502;12.238;2022-09-09T15:26:25;30.40;79.70
38784;DHT22;24531;45.502;12.238;2022-09-09T15:28:52;30.30;79.90
38784;DHT22;24531;45.502;12.238;2022-09-09T15:31:22;30.30;79.40
38784;DHT22;24531;45.502;12.238;2022-09-09T15:33:48;30.20;79.40
38784;DHT22;24531;45.502;12.238;2022-09-09T15:36:19;30.10;79.60
38784;DHT22;24531;45.502;12.238;2022-09-09T15:38:45;30.20;79.50
38784;DHT22;24531;45.502;12.238;2022-09-09T15:41:11;30.30;79.60
38784;DHT22;24531;45.502;12.238;2022-09-09T15:43:37;30.40;79.70
38784;DHT22;24531;45.502;12.238;2022-09-09T15:46:36;30.40;79.30
38784;DHT22;24531;45.502;12.238;2022-09-09T15:48:55;30.50;79.20
38784;DHT22;24531;45.502;12.238;2022-09-09T15:51:21;30.50;79.80
38784;DHT22;24531;45.502;12.238;2022-09-09T15:53:48;30.90;80.80
38784;DHT22;24531;45.502;12.238;2022-09-09T15:56:14;32.40;77.60
38784;DHT22;24531;45.502;12.238;2022-09-09T15:58:39;33.20;74.70
38784;DHT22;24531;45.502;12.238;2022-09-09T16:01:06;32.90;73.90
38784;DHT22;24531;45.502;12.238;2022-09-09T16:03:35;32.20;74.70
38784;DHT22;24531;45.502;12.238;2022-09-09T16:06:01;31.50;76.00
38784;DHT22;24531;45.502;12.238;2022-09-09T16:08:33;31.00;76.90
38784;DHT22;24531;45.502;12.238;2022-09-09T16:11:13;30.60;77.70
38784;DHT22;24531;45.502;12.238;2022-09-09T16:13:40;30.30;78.30
38784;DHT22;24531;45.502;12.238;2022-09-09T16:16:06;29.90;78.60
38784;DHT22;24531;45.502;12.238;2022-09-09T16:18:42;29.60;79.00
38784;DHT22;24531;45.502;12.238;2022-09-09T16:21:08;29.40;79.30
38784;DHT22;24531;45.502;12.238;2022-09-09T16:23:36;29.90;80.10
38784;DHT22;24531;45.502;12.238;2022-09-09T16:26:02;28.90;79.60
38784;DHT22;24531;45.502;12.238;2022-09-09T16:28:27;28.80;79.90
38784;DHT22;24531;45.502;12.238;2022-09-09T16:30:53;28.70;80.20
38784;DHT22;24531;45.502;12.238;2022-09-09T16:33:18;28.60;80.30
38784;DHT22;24531;45.502;12.238;2022-09-09T16:35:44;28.50;80.60
38784;DHT22;24531;45.502;12.238;2022-09-09T16:38:10;28.50;80.70
38784;DHT22;24531;45.502;12.238;2022-09-09T16:40:36;28.50;80.80
38784;DHT22;24531;45.502;12.238;2022-09-09T16:43:02;28.50;80.90
38784;DHT22;24531;45.502;12.238;2022-09-09T16:45:27;28.30;80.70
38784;DHT22;24531;45.502;12.238;2022-09-09T16:47:53;28.30;81.00
38784;DHT22;24531;45.502;12.238;2022-09-09T16:50:19;28.20;81.00
38784;DHT22;24531;45.502;12.238;2022-09-09T16:52:45;28.20;81.20
38784;DHT22;24531;45.502;12.238;2022-09-09T16:55:10;28.10;81.10
38784;DHT22;24531;45.502;12.238;2022-09-09T16:57:35;28.10;81.40
38784;DHT22;24531;45.502;12.238;2022-09-09T17:00:02;28.00;81.50
38784;DHT22;24531;45.502;12.238;2022-09-09T17:02:30;28.00;81.50
38784;DHT22;24531;45.502;12.238;2022-09-09T17:04:55;28.00;81.50
38784;DHT22;24531;45.502;12.238;2022-09-09T17:07:21;27.90;81.50
38784;DHT22;24531;45.502;12.238;2022-09-09T17:09:48;27.90;81.50
38784;DHT22;24531;45.502;12.238;2022-09-09T17:12:13;27.80;81.70
38784;DHT22;24531;45.502;12.238;2022-09-09T17:14:39;27.70;81.70
38784;DHT22;24531;45.502;12.238;2022-09-09T17:17:04;27.70;82.00
38784;DHT22;24531;45.502;12.238;2022-09-09T17:19:30;27.60;81.90
38784;DHT22;24531;45.502;12.238;2022-09-09T17:21:56;27.60;82.10
38784;DHT22;24531;45.502;12.238;2022-09-09T17:24:28;27.50;82.20